sensor_id;sensor_type;location;lat;lon;timestamp;temperature;humidity
16829;DHT22;8531;48.078;11.968;2023-06-22T00:00:53;21.10;99.90
16829;DHT22;8531;48.078;11.968;2023-06-22T00:03:20;21.10;99.90
16829;DHT22;8531;48.078;11.968;2023-06-22T00:05:46;21.00;99.90
16829;DHT22;8531;48.078;11.968;2023-06-22T00:08:13;21.00;99.90
16829;DHT22;8531;48.078;11.968;2023-06-22T00:10:39;21.00;99.90
16829;DHT22;8531;48.078;11.968;2023-06-22T00:13:06;21.00;99.90
16829;DHT22;8531;48.078;11.968;2023-06-22T00:15:32;21.10;99.90
16829;DHT22;8531;48.078;11.968;2023-06-22T00:17:58;21.00;99.90
16829;DHT22;8531;48.078;11.968;2023-06-22T00:20:24;20.90;99.90
16829;DHT22;8531;48.078;11.968;2023-06-22T00:22:57;20.90;99.90
16829;DHT22;8531;48.078;11.968;2023-06-22T00:25:23;20.70;99.90
16829;DHT22;8531;48.078;11.968;2023-06-22T00:27:49;20.90;99.90
16829;DHT22;8531;48.078;11.968;2023-06-22T00:30:18;21.00;99.90
16829;DHT22;8531;48.078;11.968;2023-06-22T00:32:45;21.10;99.90
16829;DHT22;8531;48.078;11.968;2023-06-22T00:35:11;21.20;99.90
16829;DHT22;8531;48.078;11.968;2023-06-22T00:37:38;21.30;99.90
16829;DHT22;8531;48.078;11.968;2023-06-22T00:40:06;21.20;99.90
16829;DHT22;8531;48.078;11.968;2023-06-22T00:42:34;21.10;99.90
16829;DHT22;8531;48.078;11.968;2023-06-22T00:45:00;21.10;99.90
16829;DHT22;8531;48.078;11.968;2023-06-22T00:47:26;21.20;99.90
16829;DHT22;8531;48.078;11.968;2023-06-22T00:49:52;21.30;99.90
16829;DHT22;8531;48.078;11.968;2023-06-22T00:52:20;21.30;99.90
16829;DHT22;8531;48.078;11.968;2023-06-22T00:54:51;21.20;99.90
16829;DHT22;8531;48.078;11.968;2023-06-22T00:57:17;21.30;99.90
16829;DHT22;8531;48.078;11.968;2023-06-22T00:59:44;21.30;99.90
16829;DHT22;8531;48.078;11.968;2023-06-22T01:02:11;21.20;99.90
16829;DHT22;8531;48.078;11.968;2023-06-22T01:04:38;21.10;99.90
16829;DHT22;8531;48.078;11.968;2023-06-22T01:12:48;20.90;99.90
16829;DHT22;8531;48.078;11.968;2023-06-22T01:15:31;21.00;99.90
16829;DHT22;8531;48.078;11.968;2023-06-22T01:17:59;21.00;99.90
16829;DHT22;8531;48.078;11.968;2023-06-22T01:20:28;20.90;99.90
16829;DHT22;8531;48.078;11.968;2023-06-22T01:23:33;20.80;99.90
16829;DHT22;8531;48.078;11.968;2023-06-22T01:26:15;20.80;99.90
16829;DHT22;8531;48.078;11.968;2023-06-22T01:31:16;20.70;99.90
16829;DHT22;8531;48.078;11.968;2023-06-22T01:33:46;20.70;99.90
16829;DHT22;8531;48.078;11.968;2023-06-22T01:36:14;20.70;99.90
16829;DHT22;8531;48.078;11.968;2023-06-22T01:38:42;20.70;99.90
16829;DHT22;8531;48.078;11.968;2023-06-22T01:41:09;20.80;99.90
16829;DHT22;8531;48.078;11.968;2023-06-22T01:43:35;20.80;99.90
16829;DHT22;8531;48.078;11.968;2023-06-22T01:46:02;20.90;99.90
16829;DHT22;8531;48.078;11.968;2023-06-22T01:48:27;20.80;99.90
16829;DHT22;8531;48.078;11.968;2023-06-22T01:50:54;20.60;99.90
16829;DHT22;8531;48.078;11.968;2023-06-22T01:53:23;20.60;99.90
16829;DHT22;8531;48.078;11.968;2023-06-22T01:55:49;20.70;99.90
16829;DHT22;8531;48.078;11.968;2023-06-22T01:58:15;20.60;99.90
16829;DHT22;8531;48.078;11.968;2023-06-22T02:00:46;20.70;99.90
16829;DHT22;8531;48.078;11.968;2023-06-22T02:03:21;20.60;99.90
16829;DHT22;8531;48.078;11.968;2023-06-22T02:05:58;20.60;99.90
16829;DHT22;8531;48.078;11.968;2023-06-22T02:08:36;20.50;99.90
16829;DHT22;8531;48.078;11.968;2023-06-22T02:11:03;20.50;99.90
16829;DHT22;8531;48.078;11.968;2023-06-22T02:13:32;20.40;99.90
16829;DHT22;8531;48.078;11.968;2023-06-22T02:15:58;20.30;99.90
16829;DHT22;8531;48.078;11.968;2023-06-22T02:18:24;20.20;99.90
16829;DHT22;8531;48.078;11.968;2023-06-22T02:20:50;20.20;99.90
16829;DHT22;8531;48.078;11.968;2023-06-22T02:23:16;20.20;99.90
16829;DHT22;8531;48.078;11.968;2023-06-22T02:25:42;20.10;99.90
16829;DHT22;8531;48.078;11.968;2023-06-22T02:28:09;20.10;99.90
16829;DHT22;8531;48.078;11.968;2023-06-22T02:30:35;20.10;99.90
16829;DHT22;8531;48.078;11.968;2023-06-22T02:33:01;20.00;99.90
16829;DHT22;8531;48.078;11.968;2023-06-22T02:35:27;19.90;99.90
16829;DHT22;8531;48.078;11.968;2023-06-22T02:38:00;19.90;99.90
16829;DHT22;8531;48.078;11.968;2023-06-22T02:40:26;19.90;99.90
16829;DHT22;8531;48.078;11.968;2023-06-22T02:42:52;19.90;99.90
16829;DHT22;8531;48.078;11.968;2023-06-22T02:45:18;19.90;99.90
16829;DHT22;8531;48.078;11.968;2023-06-22T02:47:44;19.90;99.90
16829;DHT22;8531;48.078;11.968;2023-06-22T02:50:09;19.80;99.90
16829;DHT22;8531;48.078;11.968;2023-06-22T02:52:35;19.70;99.90
16829;DHT22;8531;48.078;11.968;2023-06-22T02:55:01;19.70;99.90
16829;DHT22;8531;48.078;11.968;2023-06-22T02:57:27;19.60;99.90
16829;DHT22;8531;48.078;11.968;2023-06-22T02:59:52;19.50;99.90
16829;DHT22;8531;48.078;11.968;2023-06-22T03:02:18;19.40;99.90
16829;DHT22;8531;48.078;11.968;2023-06-22T03:04:46;19.40;99.90
16829;DHT22;8531;48.078;11.968;2023-06-22T03:07:15;19.30;99.90
16829;DHT22;8531;48.078;11.968;2023-06-22T03:09:40;19.40;99.90
16829;DHT22;8531;48.078;11.968;2023-06-22T03:12:08;19.40;99.90
16829;DHT22;8531;48.078;11.968;2023-06-22T03:14:34;19.50;99.90
16829;DHT22;8531;48.078;11.968;2023-06-22T03:17:00;19.50;99.90
16829;DHT22;8531;48.078;11.968;2023-06-22T03:19:29;19.50;99.90
16829;DHT22;8531;48.078;11.968;2023-06-22T03:21:57;19.50;99.90
16829;DHT22;8531;48.078;11.968;2023-06-22T03:24:23;19.60;99.90
16829;DHT22;8531;48.078;11.968;2023-06-22T03:26:49;19.50;99.90
16829;DHT22;8531;48.078;11.968;2023-06-22T03:29:14;19.50;99.90
16829;DHT22;8531;48.078;11.968;2023-06-22T03:31:41;19.40;99.90
16829;DHT22;8531;48.078;11.968;2023-06-22T03:34:06;19.40;99.90
16829;DHT22;8531;48.078;11.968;2023-06-22T03:36:32;19.50;99.90
16829;DHT22;8531;48.078;11.968;2023-06-22T03:38:58;19.40;99.90
16829;DHT22;8531;48.078;11.968;2023-06-22T03:41:23;19.40;99.90
16829;DHT22;8531;48.078;11.968;2023-06-22T03:43:49;19.40;99.90
16829;DHT22;8531;48.078;11.968;2023-06-22T03:46:15;19.30;99.90
16829;DHT22;8531;48.078;11.968;2023-06-22T03:48:40;19.40;99.90
16829;DHT22;8531;48.078;11.968;2023-06-22T03:51:06;19.40;99.90
16829;DHT22;8531;48.078;11.968;2023-06-22T03:53:32;19.40;99.90
16829;DHT22;8531;48.078;11.968;2023-06-22T03:55:57;19.40;99.90
16829;DHT22;8531;48.078;11.968;2023-06-22T03:58:23;19.40;99.90
16829;DHT22;8531;48.078;11.968;2023-06-22T04:00:51;19.40;99.90
16829;DHT22;8531;48.078;11.968;2023-06-22T04:03:17;19.40;99.90
16829;DHT22;8531;48.078;11.968;2023-06-22T04:05:46;19.50;99.90
16829;DHT22;8531;48.078;11.968;2023-06-22T04:08:13;19.50;99.90
16829;DHT22;8531;48.078;11.968;2023-06-22T04:10:39;19.50;99.90
16829;DHT22;8531;48.078;11.968;2023-06-22T04:13:05;19.50;99.90
16829;DHT22;8531;48.078;11.968;2023-06-22T04:15:30;19.50;99.90
16829;DHT22;8531;48.078;11.968;2023-06-22T04:17:56;19.50;99.90
16829;DHT22;8531;48.078;11.968;2023-06-22T04:20:22;19.50;99.90
16829;DHT22;8531;48.078;11.968;2023-06-22T04:22:52;19.50;99.90
16829;DHT22;8531;48.078;11.968;2023-06-22T04:25:17;19.60;99.90
16829;DHT22;8531;48.078;11.968;2023-06-22T04:27:43;19.60;99.90
16829;DHT22;8531;48.078;11.968;2023-06-22T04:30:09;19.60;99.90
16829;DHT22;8531;48.078;11.968;2023-06-22T04:32:35;19.60;99.90
16829;DHT22;8531;48.078;11.968;2023-06-22T04:35:05;19.70;99.90
16829;DHT22;8531;48.078;11.968;2023-06-22T04:37:32;19.70;99.90
16829;DHT22;8531;48.078;11.968;2023-06-22T04:39:57;19.80;99.90
16829;DHT22;8531;48.078;11.968;2023-06-22T04:42:25;19.80;99.90
16829;DHT22;8531;48.078;11.968;2023-06-22T04:44:51;19.90;99.90
16829;DHT22;8531;48.078;11.968;2023-06-22T04:47:16;19.90;99.90
16829;DHT22;8531;48.078;11.968;2023-06-22T04:49:42;20.00;99.90
16829;DHT22;8531;48.078;11.968;2023-06-22T04:52:11;20.10;99.90
16829;DHT22;8531;48.078;11.968;2023-06-22T04:54:39;19.90;99.90
16829;DHT22;8531;48.078;11.968;2023-06-22T04:57:07;19.90;99.90
16829;DHT22;8531;48.078;11.968;2023-06-22T04:59:37;20.00;99.90
16829;DHT22;8531;48.078;11.968;2023-06-22T05:02:05;20.10;99.90
16829;DHT22;8531;48.078;11.968;2023-06-22T05:04:31;20.10;99.90
16829;DHT22;8531;48.078;11.968;2023-06-22T05:06:58;20.10;99.90
16829;DHT22;8531;48.078;11.968;2023-06-22T05:09:24;20.20;99.90
16829;DHT22;8531;48.078;11.968;2023-06-22T05:11:50;20.20;99.90
16829;DHT22;8531;48.078;11.968;2023-06-22T05:14:16;20.30;99.90
16829;DHT22;8531;48.078;11.968;2023-06-22T05:16:42;20.40;99.90
16829;DHT22;8531;48.078;11.968;2023-06-22T05:19:08;20.50;99.90
16829;DHT22;8531;48.078;11.968;2023-06-22T05:21:34;20.40;99.90
16829;DHT22;8531;48.078;11.968;2023-06-22T05:24:00;20.60;99.90
16829;DHT22;8531;48.078;11.968;2023-06-22T05:26:28;20.50;99.90
16829;DHT22;8531;48.078;11.968;2023-06-22T05:28:54;20.60;99.90
16829;DHT22;8531;48.078;11.968;2023-06-22T05:31:20;20.60;99.90
16829;DHT22;8531;48.078;11.968;2023-06-22T05:33:47;20.80;99.90
16829;DHT22;8531;48.078;11.968;2023-06-22T05:36:13;20.80;99.90
16829;DHT22;8531;48.078;11.968;2023-06-22T05:38:39;20.90;99.90
16829;DHT22;8531;48.078;11.968;2023-06-22T05:41:05;21.00;99.90
16829;DHT22;8531;48.078;11.968;2023-06-22T05:43:31;21.10;99.90
16829;DHT22;8531;48.078;11.968;2023-06-22T05:45:57;21.30;99.90
16829;DHT22;8531;48.078;11.968;2023-06-22T05:48:23;21.40;99.90
16829;DHT22;8531;48.078;11.968;2023-06-22T05:50:49;21.40;99.90
16829;DHT22;8531;48.078;11.968;2023-06-22T05:53:15;21.50;99.90
16829;DHT22;8531;48.078;11.968;2023-06-22T05:55:41;21.50;99.90
16829;DHT22;8531;48.078;11.968;2023-06-22T05:58:08;21.40;99.90
16829;DHT22;8531;48.078;11.968;2023-06-22T06:00:34;21.50;99.90
16829;DHT22;8531;48.078;11.968;2023-06-22T06:03:00;21.70;99.90
16829;DHT22;8531;48.078;11.968;2023-06-22T06:05:33;21.80;99.90
16829;DHT22;8531;48.078;11.968;2023-06-22T06:08:00;21.90;99.90
16829;DHT22;8531;48.078;11.968;2023-06-22T06:10:26;21.90;99.90
16829;DHT22;8531;48.078;11.968;2023-06-22T06:12:52;22.00;99.90
16829;DHT22;8531;48.078;11.968;2023-06-22T06:15:18;22.00;99.90
16829;DHT22;8531;48.078;11.968;2023-06-22T06:17:51;22.10;99.90
16829;DHT22;8531;48.078;11.968;2023-06-22T06:20:22;22.30;99.90
16829;DHT22;8531;48.078;11.968;2023-06-22T06:22:48;22.40;99.90
16829;DHT22;8531;48.078;11.968;2023-06-22T06:25:14;22.40;99.90
16829;DHT22;8531;48.078;11.968;2023-06-22T06:27:43;22.40;99.90
16829;DHT22;8531;48.078;11.968;2023-06-22T06:30:10;22.60;99.90
16829;DHT22;8531;48.078;11.968;2023-06-22T06:32:36;22.60;99.90
16829;DHT22;8531;48.078;11.968;2023-06-22T06:35:02;22.70;99.90
16829;DHT22;8531;48.078;11.968;2023-06-22T06:37:28;22.80;99.90
16829;DHT22;8531;48.078;11.968;2023-06-22T06:39:53;22.90;99.90
16829;DHT22;8531;48.078;11.968;2023-06-22T06:42:19;22.90;99.90
16829;DHT22;8531;48.078;11.968;2023-06-22T06:44:45;22.90;99.90
16829;DHT22;8531;48.078;11.968;2023-06-22T06:47:11;23.10;99.90
16829;DHT22;8531;48.078;11.968;2023-06-22T06:49:36;23.30;99.90
16829;DHT22;8531;48.078;11.968;2023-06-22T06:52:02;23.50;99.90
16829;DHT22;8531;48.078;11.968;2023-06-22T06:54:28;23.50;99.90
16829;DHT22;8531;48.078;11.968;2023-06-22T06:56:54;23.50;99.90
16829;DHT22;8531;48.078;11.968;2023-06-22T06:59:19;23.50;99.90
16829;DHT22;8531;48.078;11.968;2023-06-22T07:01:45;23.60;99.90
16829;DHT22;8531;48.078;11.968;2023-06-22T07:04:10;23.90;99.90
16829;DHT22;8531;48.078;11.968;2023-06-22T07:06:36;24.00;99.90
16829;DHT22;8531;48.078;11.968;2023-06-22T07:09:03;24.30;99.90
16829;DHT22;8531;48.078;11.968;2023-06-22T07:11:29;24.10;99.90
16829;DHT22;8531;48.078;11.968;2023-06-22T07:13:54;24.10;99.90
16829;DHT22;8531;48.078;11.968;2023-06-22T07:16:20;24.20;99.90
16829;DHT22;8531;48.078;11.968;2023-06-22T07:18:46;24.30;99.90
16829;DHT22;8531;48.078;11.968;2023-06-22T07:21:12;24.40;99.90
16829;DHT22;8531;48.078;11.968;2023-06-22T07:23:37;24.50;99.90
16829;DHT22;8531;48.078;11.968;2023-06-22T07:26:03;24.70;99.90
16829;DHT22;8531;48.078;11.968;2023-06-22T07:28:31;24.70;99.90
16829;DHT22;8531;48.078;11.968;2023-06-22T07:31:02;24.90;99.90
16829;DHT22;8531;48.078;11.968;2023-06-22T07:33:29;25.10;99.90
16829;DHT22;8531;48.078;11.968;2023-06-22T07:35:55;25.20;99.90
16829;DHT22;8531;48.078;11.968;2023-06-22T07:38:20;25.50;99.90
16829;DHT22;8531;48.078;11.968;2023-06-22T07:40:47;25.40;99.90
16829;DHT22;8531;48.078;11.968;2023-06-22T07:43:12;25.40;99.90
16829;DHT22;8531;48.078;11.968;2023-06-22T07:45:38;25.50;99.90
16829;DHT22;8531;48.078;11.968;2023-06-22T07:48:07;25.60;99.90
16829;DHT22;8531;48.078;11.968;2023-06-22T07:50:32;25.70;99.90
16829;DHT22;8531;48.078;11.968;2023-06-22T07:52:58;25.60;99.90
16829;DHT22;8531;48.078;11.968;2023-06-22T07:55:24;26.00;99.90
16829;DHT22;8531;48.078;11.968;2023-06-22T07:57:49;26.10;99.90
16829;DHT22;8531;48.078;11.968;2023-06-22T08:00:17;26.00;99.90
16829;DHT22;8531;48.078;11.968;2023-06-22T08:02:45;26.20;99.90
16829;DHT22;8531;48.078;11.968;2023-06-22T08:05:13;26.50;99.90
16829;DHT22;8531;48.078;11.968;2023-06-22T08:07:39;26.60;99.90
16829;DHT22;8531;48.078;11.968;2023-06-22T08:10:11;26.60;99.90
16829;DHT22;8531;48.078;11.968;2023-06-22T08:12:37;26.70;99.90
16829;DHT22;8531;48.078;11.968;2023-06-22T08:15:03;27.00;99.90
16829;DHT22;8531;48.078;11.968;2023-06-22T08:17:29;27.00;99.90
16829;DHT22;8531;48.078;11.968;2023-06-22T08:19:56;26.90;99.90
16829;DHT22;8531;48.078;11.968;2023-06-22T08:22:22;27.30;99.90
16829;DHT22;8531;48.078;11.968;2023-06-22T08:24:48;27.50;99.90
16829;DHT22;8531;48.078;11.968;2023-06-22T08:27:13;27.60;99.90
16829;DHT22;8531;48.078;11.968;2023-06-22T08:29:40;27.70;99.90
16829;DHT22;8531;48.078;11.968;2023-06-22T08:32:11;27.80;99.90
16829;DHT22;8531;48.078;11.968;2023-06-22T08:34:37;28.00;99.90
16829;DHT22;8531;48.078;11.968;2023-06-22T08:37:08;28.30;99.90
16829;DHT22;8531;48.078;11.968;2023-06-22T08:39:34;28.40;99.90
16829;DHT22;8531;48.078;11.968;2023-06-22T08:41:59;28.60;99.90
16829;DHT22;8531;48.078;11.968;2023-06-22T08:44:25;29.00;99.90
16829;DHT22;8531;48.078;11.968;2023-06-22T08:46:51;28.90;99.90
16829;DHT22;8531;48.078;11.968;2023-06-22T08:49:17;28.90;99.90
16829;DHT22;8531;48.078;11.968;2023-06-22T08:51:42;29.10;99.90
16829;DHT22;8531;48.078;11.968;2023-06-22T08:54:10;29.00;99.90
16829;DHT22;8531;48.078;11.968;2023-06-22T08:56:36;29.10;99.90
16829;DHT22;8531;48.078;11.968;2023-06-22T08:59:01;29.30;99.90
16829;DHT22;8531;48.078;11.968;2023-06-22T09:01:27;29.10;99.90
16829;DHT22;8531;48.078;11.968;2023-06-22T09:03:53;29.00;99.90
16829;DHT22;8531;48.078;11.968;2023-06-22T09:06:23;29.20;99.90
16829;DHT22;8531;48.078;11.968;2023-06-22T09:08:50;29.30;99.90
16829;DHT22;8531;48.078;11.968;2023-06-22T09:11:16;29.40;99.90
16829;DHT22;8531;48.078;11.968;2023-06-22T09:13:42;29.70;99.90
16829;DHT22;8531;48.078;11.968;2023-06-22T09:16:08;30.10;99.90
16829;DHT22;8531;48.078;11.968;2023-06-22T09:18:36;30.10;99.90
16829;DHT22;8531;48.078;11.968;2023-06-22T09:21:02;30.20;99.90
16829;DHT22;8531;48.078;11.968;2023-06-22T09:23:28;30.20;99.90
16829;DHT22;8531;48.078;11.968;2023-06-22T09:25:54;30.40;99.90
16829;DHT22;8531;48.078;11.968;2023-06-22T09:28:19;30.60;99.90
16829;DHT22;8531;48.078;11.968;2023-06-22T09:30:45;30.80;99.90
16829;DHT22;8531;48.078;11.968;2023-06-22T09:33:11;31.00;99.90
16829;DHT22;8531;48.078;11.968;2023-06-22T09:35:36;30.70;99.90
16829;DHT22;8531;48.078;11.968;2023-06-22T09:38:02;30.90;99.90
16829;DHT22;8531;48.078;11.968;2023-06-22T09:40:28;31.20;99.90
16829;DHT22;8531;48.078;11.968;2023-06-22T09:42:54;31.20;99.90
16829;DHT22;8531;48.078;11.968;2023-06-22T09:45:19;31.20;99.90
16829;DHT22;8531;48.078;11.968;2023-06-22T09:47:45;31.20;99.90
16829;DHT22;8531;48.078;11.968;2023-06-22T09:50:11;31.20;99.90
16829;DHT22;8531;48.078;11.968;2023-06-22T09:52:37;31.80;99.90
16829;DHT22;8531;48.078;11.968;2023-06-22T09:55:03;31.90;99.90
16829;DHT22;8531;48.078;11.968;2023-06-22T09:57:29;31.90;99.90
16829;DHT22;8531;48.078;11.968;2023-06-22T09:59:55;32.10;99.90
16829;DHT22;8531;48.078;11.968;2023-06-22T10:02:21;32.10;99.90
16829;DHT22;8531;48.078;11.968;2023-06-22T10:04:48;32.00;99.90
16829;DHT22;8531;48.078;11.968;2023-06-22T10:07:13;32.30;99.90
16829;DHT22;8531;48.078;11.968;2023-06-22T10:09:39;32.40;99.90
16829;DHT22;8531;48.078;11.968;2023-06-22T10:12:05;32.40;99.90
16829;DHT22;8531;48.078;11.968;2023-06-22T10:14:31;32.50;99.90
16829;DHT22;8531;48.078;11.968;2023-06-22T10:16:57;32.40;99.90
16829;DHT22;8531;48.078;11.968;2023-06-22T10:19:22;32.40;99.90
16829;DHT22;8531;48.078;11.968;2023-06-22T10:21:48;32.40;99.90
16829;DHT22;8531;48.078;11.968;2023-06-22T10:24:14;32.70;99.90
16829;DHT22;8531;48.078;11.968;2023-06-22T10:26:41;33.00;99.90
16829;DHT22;8531;48.078;11.968;2023-06-22T10:29:06;33.10;99.90
16829;DHT22;8531;48.078;11.968;2023-06-22T10:31:32;33.20;99.90
16829;DHT22;8531;48.078;11.968;2023-06-22T10:33:58;33.00;99.90
16829;DHT22;8531;48.078;11.968;2023-06-22T10:36:23;33.00;99.90
16829;DHT22;8531;48.078;11.968;2023-06-22T10:38:49;33.40;99.90
16829;DHT22;8531;48.078;11.968;2023-06-22T10:41:15;33.70;99.90
16829;DHT22;8531;48.078;11.968;2023-06-22T10:43:41;33.50;99.90
16829;DHT22;8531;48.078;11.968;2023-06-22T10:46:07;33.70;99.90
16829;DHT22;8531;48.078;11.968;2023-06-22T10:48:33;34.00;99.90
16829;DHT22;8531;48.078;11.968;2023-06-22T10:50:59;34.00;99.90
16829;DHT22;8531;48.078;11.968;2023-06-22T10:53:25;34.60;99.90
16829;DHT22;8531;48.078;11.968;2023-06-22T10:55:50;34.80;99.90
16829;DHT22;8531;48.078;11.968;2023-06-22T10:58:21;34.70;99.90
16829;DHT22;8531;48.078;11.968;2023-06-22T11:00:46;34.90;99.90
16829;DHT22;8531;48.078;11.968;2023-06-22T11:03:12;34.60;99.90
16829;DHT22;8531;48.078;11.968;2023-06-22T11:05:39;35.10;99.90
16829;DHT22;8531;48.078;11.968;2023-06-22T11:08:05;35.30;99.90
16829;DHT22;8531;48.078;11.968;2023-06-22T11:10:31;35.60;99.90
16829;DHT22;8531;48.078;11.968;2023-06-22T11:12:57;35.40;99.90
16829;DHT22;8531;48.078;11.968;2023-06-22T11:15:24;35.50;99.90
16829;DHT22;8531;48.078;11.968;2023-06-22T11:17:49;35.60;99.90
16829;DHT22;8531;48.078;11.968;2023-06-22T11:20:15;35.30;99.90
16829;DHT22;8531;48.078;11.968;2023-06-22T11:22:41;34.90;99.90
16829;DHT22;8531;48.078;11.968;2023-06-22T11:25:08;35.10;99.90
16829;DHT22;8531;48.078;11.968;2023-06-22T11:27:34;35.00;99.90
16829;DHT22;8531;48.078;11.968;2023-06-22T11:30:00;35.20;99.90
16829;DHT22;8531;48.078;11.968;2023-06-22T11:32:26;35.50;99.90
16829;DHT22;8531;48.078;11.968;2023-06-22T11:34:51;35.60;99.90
16829;DHT22;8531;48.078;11.968;2023-06-22T11:37:17;35.20;99.90
16829;DHT22;8531;48.078;11.968;2023-06-22T11:39:43;34.80;99.90
16829;DHT22;8531;48.078;11.968;2023-06-22T11:42:09;34.70;99.90
16829;DHT22;8531;48.078;11.968;2023-06-22T11:44:35;34.30;99.90
16829;DHT22;8531;48.078;11.968;2023-06-22T11:47:00;34.40;99.90
16829;DHT22;8531;48.078;11.968;2023-06-22T11:49:29;34.00;99.90
16829;DHT22;8531;48.078;11.968;2023-06-22T11:51:55;33.80;99.90
16829;DHT22;8531;48.078;11.968;2023-06-22T11:54:20;33.70;99.90
16829;DHT22;8531;48.078;11.968;2023-06-22T11:56:46;33.60;99.90
16829;DHT22;8531;48.078;11.968;2023-06-22T11:59:12;33.60;99.90
16829;DHT22;8531;48.078;11.968;2023-06-22T12:01:37;33.70;99.90
16829;DHT22;8531;48.078;11.968;2023-06-22T12:04:03;33.90;99.90
16829;DHT22;8531;48.078;11.968;2023-06-22T12:06:31;34.30;99.90
16829;DHT22;8531;48.078;11.968;2023-06-22T12:08:57;34.30;99.90
16829;DHT22;8531;48.078;11.968;2023-06-22T12:11:23;34.70;99.90
16829;DHT22;8531;48.078;11.968;2023-06-22T12:13:49;35.10;99.90
16829;DHT22;8531;48.078;11.968;2023-06-22T12:16:14;34.70;99.90
16829;DHT22;8531;48.078;11.968;2023-06-22T12:18:40;34.90;99.90
16829;DHT22;8531;48.078;11.968;2023-06-22T12:21:06;35.10;99.90
16829;DHT22;8531;48.078;11.968;2023-06-22T12:23:32;35.10;99.90
16829;DHT22;8531;48.078;11.968;2023-06-22T12:25:57;35.00;99.90
16829;DHT22;8531;48.078;11.968;2023-06-22T12:28:24;34.90;99.90
16829;DHT22;8531;48.078;11.968;2023-06-22T12:30:50;35.20;99.90
16829;DHT22;8531;48.078;11.968;2023-06-22T12:33:16;34.80;99.90
16829;DHT22;8531;48.078;11.968;2023-06-22T12:35:41;34.70;99.90
16829;DHT22;8531;48.078;11.968;2023-06-22T12:38:07;34.70;99.90
16829;DHT22;8531;48.078;11.968;2023-06-22T12:40:33;34.70;99.90
16829;DHT22;8531;48.078;11.968;2023-06-22T12:42:59;34.60;99.90
16829;DHT22;8531;48.078;11.968;2023-06-22T12:45:25;34.80;99.90
16829;DHT22;8531;48.078;11.968;2023-06-22T12:47:54;35.00;99.90
16829;DHT22;8531;48.078;11.968;2023-06-22T12:50:20;35.00;99.90
16829;DHT22;8531;48.078;11.968;2023-06-22T12:52:45;34.90;99.90
16829;DHT22;8531;48.078;11.968;2023-06-22T12:55:11;34.60;99.90
16829;DHT22;8531;48.078;11.968;2023-06-22T12:57:37;34.90;99.90
16829;DHT22;8531;48.078;11.968;2023-06-22T13:00:02;35.10;99.90
16829;DHT22;8531;48.078;11.968;2023-06-22T13:02:30;35.10;99.90
16829;DHT22;8531;48.078;11.968;2023-06-22T13:04:56;34.80;99.90
16829;DHT22;8531;48.078;11.968;2023-06-22T13:07:22;35.00;99.90
16829;DHT22;8531;48.078;11.968;2023-06-22T13:09:47;34.90;99.90
16829;DHT22;8531;48.078;11.968;2023-06-22T13:12:16;34.80;99.90
16829;DHT22;8531;48.078;11.968;2023-06-22T13:14:42;34.70;99.90
16829;DHT22;8531;48.078;11.968;2023-06-22T13:17:09;34.60;99.90
16829;DHT22;8531;48.078;11.968;2023-06-22T13:19:34;34.40;99.90
16829;DHT22;8531;48.078;11.968;2023-06-22T13:22:00;34.50;99.90
16829;DHT22;8531;48.078;11.968;2023-06-22T13:24:26;34.20;99.90
16829;DHT22;8531;48.078;11.968;2023-06-22T13:26:51;34.20;99.90
16829;DHT22;8531;48.078;11.968;2023-06-22T13:29:17;34.20;99.90
16829;DHT22;8531;48.078;11.968;2023-06-22T13:31:43;34.50;99.90
16829;DHT22;8531;48.078;11.968;2023-06-22T13:34:08;34.90;99.90
16829;DHT22;8531;48.078;11.968;2023-06-22T13:36:34;34.90;99.90
16829;DHT22;8531;48.078;11.968;2023-06-22T13:38:59;34.90;99.90
16829;DHT22;8531;48.078;11.968;2023-06-22T13:41:25;35.00;99.90
16829;DHT22;8531;48.078;11.968;2023-06-22T13:43:51;35.20;99.90
16829;DHT22;8531;48.078;11.968;2023-06-22T13:46:17;34.90;99.90
16829;DHT22;8531;48.078;11.968;2023-06-22T13:48:42;35.00;99.90
16829;DHT22;8531;48.078;11.968;2023-06-22T13:51:08;35.20;99.90
16829;DHT22;8531;48.078;11.968;2023-06-22T13:53:34;35.10;99.90
16829;DHT22;8531;48.078;11.968;2023-06-22T13:55:59;35.20;99.90
16829;DHT22;8531;48.078;11.968;2023-06-22T13:58:25;35.20;99.90
16829;DHT22;8531;48.078;11.968;2023-06-22T14:00:51;35.10;99.90
16829;DHT22;8531;48.078;11.968;2023-06-22T14:03:16;34.70;99.90
16829;DHT22;8531;48.078;11.968;2023-06-22T14:05:42;34.60;99.90
16829;DHT22;8531;48.078;11.968;2023-06-22T14:08:08;34.50;99.90
16829;DHT22;8531;48.078;11.968;2023-06-22T14:10:34;34.60;99.90
16829;DHT22;8531;48.078;11.968;2023-06-22T14:13:00;34.90;99.90
16829;DHT22;8531;48.078;11.968;2023-06-22T14:15:26;35.10;99.90
16829;DHT22;8531;48.078;11.968;2023-06-22T14:17:52;35.20;99.90
16829;DHT22;8531;48.078;11.968;2023-06-22T14:20:18;35.30;99.90
16829;DHT22;8531;48.078;11.968;2023-06-22T14:22:43;35.60;99.90
16829;DHT22;8531;48.078;11.968;2023-06-22T14:25:09;35.50;99.90
16829;DHT22;8531;48.078;11.968;2023-06-22T14:27:35;35.60;99.90
16829;DHT22;8531;48.078;11.968;2023-06-22T14:30:00;35.50;99.90
16829;DHT22;8531;48.078;11.968;2023-06-22T14:32:28;35.40;99.90
16829;DHT22;8531;48.078;11.968;2023-06-22T14:34:55;35.40;99.90
16829;DHT22;8531;48.078;11.968;2023-06-22T14:37:21;35.60;99.90
16829;DHT22;8531;48.078;11.968;2023-06-22T14:39:46;35.70;99.90
16829;DHT22;8531;48.078;11.968;2023-06-22T14:42:12;35.50;99.90
16829;DHT22;8531;48.078;11.968;2023-06-22T14:44:38;35.60;99.90
16829;DHT22;8531;48.078;11.968;2023-06-22T14:47:03;35.40;99.90
16829;DHT22;8531;48.078;11.968;2023-06-22T14:49:29;35.30;99.90
16829;DHT22;8531;48.078;11.968;2023-06-22T14:51:55;35.70;99.90
16829;DHT22;8531;48.078;11.968;2023-06-22T14:54:21;35.60;99.90
16829;DHT22;8531;48.078;11.968;2023-06-22T14:56:47;35.60;99.90
16829;DHT22;8531;48.078;11.968;2023-06-22T14:59:13;35.50;99.90
16829;DHT22;8531;48.078;11.968;2023-06-22T15:01:39;35.50;99.90
16829;DHT22;8531;48.078;11.968;2023-06-22T15:04:05;35.40;99.90
16829;DHT22;8531;48.078;11.968;2023-06-22T15:06:31;35.40;99.90
16829;DHT22;8531;48.078;11.968;2023-06-22T15:08:56;35.60;99.90
16829;DHT22;8531;48.078;11.968;2023-06-22T15:11:22;35.60;99.90
16829;DHT22;8531;48.078;11.968;2023-06-22T15:13:48;35.60;99.90
16829;DHT22;8531;48.078;11.968;2023-06-22T15:16:13;35.60;99.90
16829;DHT22;8531;48.078;11.968;2023-06-22T15:18:39;35.70;99.90
16829;DHT22;8531;48.078;11.968;2023-06-22T15:21:06;35.70;99.90
16829;DHT22;8531;48.078;11.968;2023-06-22T15:23:32;35.80;99.90
16829;DHT22;8531;48.078;11.968;2023-06-22T15:25:59;35.60;99.90
16829;DHT22;8531;48.078;11.968;2023-06-22T15:28:25;35.70;99.90
16829;DHT22;8531;48.078;11.968;2023-06-22T15:30:51;35.90;99.90
16829;DHT22;8531;48.078;11.968;2023-06-22T15:33:17;35.60;99.90